Flight Track Log - Related Links

Times and Time Zones

All times are in EDT time to prevent confusion due to time zone crossing. See the AAL2217 flight status page for this flight to view local times or setup timezone preferences in your user account.

Time Position Orientation Groundspeed Altitude Reporting Facility
EDT Latitude Longitude Course Direction KTS MPH feet Rate Location/Type
Sun 10:03:27 AM 38.7667 -90.4333 240° Southwest 169 194 2,600  Level Gateway (St. Louis) TRACON
Sun 10:04:09 AM 38.8000 -90.5000 303° West 243 280 3,700 1,200 Climbing Gateway (St. Louis) TRACON
Sun 10:04:37 AM 38.7917 -90.5156 236° Southwest 247 284 4,000 876 Climbing Kansas City Center
Sun 10:05:00 AM 38.5464 -90.4498 236° Southwest  Level FlightAware Approximate
Sun 10:05:38 AM 38.7239 -90.5861 219° Southwest 263 303 5,000  Level Kansas City Center
Sun 10:06:00 AM 38.4896 -90.5552 235° Southwest  Level FlightAware Approximate
Sun 10:06:40 AM 38.6633 -90.6450 217° Southwest 272 313 7,100  Level Kansas City Center
Sun 10:07:00 AM 38.4386 -90.6652 240° Southwest  Level FlightAware Approximate
Sun 10:07:41 AM 38.5978 -90.7031 215° Southwest 285 328 10,900  Level Kansas City Center
Sun 10:08:00 AM 38.3883 -90.7758 240° Southwest  Level FlightAware Approximate
Sun 10:08:42 AM 38.5183 -90.7764 216° Southwest 344 396 13,400  Level Kansas City Center
Sun 10:09:44 AM 38.4350 -90.8542 216° Southwest 366 421 16,400 2,634 Climbing Kansas City Center
Sun 10:10:45 AM 38.3492 -90.9331 216° Southwest 378 435 18,800 2,311 Climbing Kansas City Center
Sun 10:11:46 AM 38.2600 -91.0144 216° Southwest 390 449 21,100 2,293 Climbing Kansas City Center
Sun 10:12:48 AM 38.1503 -91.1100 214° Southwest 408 470 23,500 2,195 Climbing Kansas City Center
Sun 10:13:49 AM 38.0525 -91.1933 214° Southwest 417 480 25,600 1,820 Climbing Kansas City Center
Sun 10:14:50 AM 37.9639 -91.2958 222° Southwest 421 484 27,200 1,902 Climbing Kansas City Center
Sun 10:15:52 AM 37.8833 -91.4031 226° Southwest 419 482 29,500 2,098 Climbing Kansas City Center
Sun 10:16:53 AM 37.8033 -91.5083 226° Southwest 412 474 31,500 1,659 Climbing Kansas City Center
Sun 10:17:55 AM 37.7272 -91.6083 226° Southwest 402 463 32,900 1,220 Climbing Kansas City Center
Sun 10:18:56 AM 37.6539 -91.7067 227° Southwest 393 452 34,000 541 Climbing Kansas City Center
Sun 10:19:57 AM 37.5811 -91.8036 227° Southwest 384 442 34,000  Level Kansas City Center
Sun 10:20:59 AM 37.5194 -91.9167 236° Southwest 386 444 34,000  Level Kansas City Center
Sun 10:22:00 AM 37.4461 -92.0481 235° Southwest 383 441 34,000  Level Kansas City Center
Sun 10:23:02 AM 37.3858 -92.1553 235° Southwest 375 432 34,000  Level Kansas City Center
Sun 10:24:03 AM 37.3261 -92.2594 234° Southwest 369 425 34,000  Level Kansas City Center
Sun 10:25:05 AM 37.2658 -92.3650 234° Southwest 368 423 34,000  Level Kansas City Center
Sun 10:26:06 AM 37.2061 -92.4711 235° Southwest 368 423 34,000  Level Kansas City Center
Sun 10:27:07 AM 37.1458 -92.5753 234° Southwest 368 423 34,000  Level Kansas City Center
Sun 10:28:09 AM 37.0861 -92.6814 235° Southwest 368 423 34,000  Level Kansas City Center
Sun 10:29:10 AM 37.0250 -92.7867 234° Southwest 370 426 34,000  Level Kansas City Center
Sun 10:30:12 AM 36.9647 -92.8903 234° Southwest 370 426 34,000  Level Kansas City Center
Sun 10:31:13 AM 36.9044 -92.9953 234° Southwest 369 425 34,000  Level Kansas City Center
Sun 10:31:56 AM 36.8542 -93.0897 236° Southwest 381 438 34,000  Level Memphis Center
Sun 10:32:56 AM 36.7914 -93.1939 233° Southwest 381 438 34,000  Level Memphis Center
Sun 10:33:56 AM 36.7022 -93.2658 213° Southwest 370 426 34,000  Level Memphis Center
Sun 10:34:56 AM 36.6067 -93.3372 211° Southwest 391 450 34,000  Level Memphis Center
Sun 10:35:56 AM 36.5111 -93.4086 211° Southwest 403 464 34,000 -350 Level Memphis Center
Sun 10:36:56 AM 36.4239 -93.4775 212° Southwest 410 472 33,300 -850 Descending Memphis Center
Sun 10:37:56 AM 36.3325 -93.5489 212° Southwest 410 472 32,300 -650 Descending Memphis Center
Sun 10:38:56 AM 36.2411 -93.6200 212° Southwest 404 465 32,000 -150 Descending Memphis Center
Sun 10:39:56 AM 36.1475 -93.6933 212° Southwest 404 465 32,000  Level Memphis Center
Sun 10:40:56 AM 36.0539 -93.7639 211° Southwest 404 465 32,000  Level Memphis Center
Sun 10:41:56 AM 35.9578 -93.8394 212° Southwest 404 465 32,000  Level Memphis Center
Sun 10:42:56 AM 35.8642 -93.9122 212° Southwest 404 465 32,000  Level Memphis Center
Sun 10:43:56 AM 35.7703 -93.9850 212° Southwest 404 465 32,000  Level Memphis Center
Sun 10:44:56 AM 35.6636 -94.0647 211° Southwest 412 474 32,000  Level Memphis Center
Sun 10:45:56 AM 35.5783 -94.1272 211° Southwest 412 474 32,000  Level Memphis Center
Sun 10:46:56 AM 35.4822 -94.1994 211° Southwest 412 474 32,000  Level Memphis Center
Sun 10:47:56 AM 35.3881 -94.2739 213° Southwest 412 474 32,000  Level Memphis Center
Sun 10:48:56 AM 35.3019 -94.3642 221° Southwest 412 474 32,000  Level Memphis Center
Sun 10:50:58 AM 35.1236 -94.5631 222° Southwest 419 482 32,000  Level Fort Worth Center
Sun 10:51:58 AM 35.0381 -94.6547 221° Southwest 414 476 32,000  Level Fort Worth Center
Sun 10:52:58 AM 34.9544 -94.7486 223° Southwest 409 471 32,000  Level Fort Worth Center
Sun 10:53:58 AM 34.8892 -94.8164 220° Southwest 409 471 32,000  Level Fort Worth Center
Sun 10:54:58 AM 34.7872 -94.9258 221° Southwest 409 471 32,000 -100 Level Fort Worth Center
Sun 10:55:58 AM 34.7014 -95.0192 222° Southwest 409 471 31,800 -650 Descending Fort Worth Center
Sun 10:56:58 AM 34.6003 -95.0825 207° Southwest 409 471 30,700 -1,100 Descending Fort Worth Center
Sun 10:57:58 AM 34.4894 -95.0628 172° South 383 441 29,600 -1,050 Descending Fort Worth Center
Sun 10:58:58 AM 34.3761 -95.0356 169° South 390 449 28,600 -1,000 Descending Fort Worth Center
Sun 10:59:58 AM 34.2692 -95.0033 166° South 396 456 27,600 -950 Descending Fort Worth Center
Sun 11:00:58 AM 34.1717 -95.0314 193° South 364 419 26,700 -1,000 Descending Fort Worth Center
Sun 11:01:58 AM 34.1153 -95.1383 238° Southwest 335 386 25,600 -1,050 Descending Fort Worth Center
Sun 11:02:58 AM 34.0608 -95.2425 238° Southwest 346 398 24,600 -800 Descending Fort Worth Center
Sun 11:03:58 AM 34.0083 -95.3464 239° Southwest 363 418 24,000 -300 Descending Fort Worth Center
Sun 11:04:58 AM 33.9475 -95.4581 237° Southwest 387 445 24,000  Level Fort Worth Center
Sun 11:05:58 AM 33.8825 -95.5744 236° Southwest 415 478 24,000  Level Fort Worth Center
Sun 11:06:58 AM 33.8153 -95.6911 235° Southwest 427 491 24,000  Level Fort Worth Center
Sun 11:07:58 AM 33.7478 -95.8072 235° Southwest 427 491 24,000 -450 Level Fort Worth Center
Sun 11:08:58 AM 33.6803 -95.9183 234° Southwest 433 498 23,100 -1,650 Descending Fort Worth Center
Sun 11:09:58 AM 33.6231 -96.0217 236° Southwest 421 484 20,700 -2,550 Descending Fort Worth Center
Sun 11:10:58 AM 33.5533 -96.1397 235° Southwest 414 476 18,000 -2,350 Descending Fort Worth Center
Sun 11:11:58 AM 33.4958 -96.2378 235° Southwest 401 461 16,000 -1,500 Descending Fort Worth Center
Sun 11:12:58 AM 33.4342 -96.3431 235° Southwest 375 432 15,000 -800 Descending Fort Worth Center
Sun 11:13:58 AM 33.3786 -96.4258 231° Southwest 363 418 14,400 -1,400 Descending Fort Worth Center
Sun 11:14:58 AM 33.3019 -96.5136 224° Southwest 352 405 12,200 -1,700 Descending Fort Worth Center
Sun 11:15:58 AM 33.2336 -96.5964 225° Southwest 352 405 11,000 -600 Descending Fort Worth Center
Sun 11:16:58 AM 33.1736 -96.6689 225° Southwest 357 411 11,000  Level Fort Worth Center
Sun 11:17:58 AM 33.0969 -96.7614 225° Southwest 352 405 11,000  Level Fort Worth Center
Sun 11:18:41 AM 33.0500 -96.8167 225° Southwest 317 365 11,000  Level Dallas / Fort Worth TRACON
Sun 11:19:42 AM 33.0000 -96.8833 228° Southwest 263 303 11,000 -150 Level Dallas / Fort Worth TRACON
Sun 11:20:41 AM 32.9167 -96.9000 190° South 279 321 10,700 -1,059 Descending Dallas / Fort Worth TRACON
Sun 11:21:41 AM 32.8500 -96.9000 180° South 282 325 8,900 -1,650 Descending Dallas / Fort Worth TRACON
Sun 11:22:41 AM 32.7667 -96.9000 180° South 259 298 7,400 -1,617 Descending Dallas / Fort Worth TRACON
Sun 11:23:36 AM 32.7000 -96.9167 192° South 255 293 5,800 -1,947 Descending Dallas / Fort Worth TRACON
Sun 11:24:35 AM 32.7000 -96.9667 270° West 221 254 3,700 -1,700 Descending Dallas / Fort Worth TRACON
Sun 11:25:36 AM 32.7500 -97.0000 331° Northwest 189 217 2,400 -1,279 Descending Dallas / Fort Worth TRACON

Login

Don't have an account? Register now (free) for customized features, flight alerts, and more!